Latest Coastal Weather Observations for Hamilton Island

IDQ60701

Issued at 8:43 am EST Sunday 19 May 2024 (issued every 10 minutes, with the page automatically refreshed every 10 minutes)

About coastal observations | Map of coastal stations | Coastal observations for QLD | Marine services | Other Formats
Station Details ID: 033106 Name: HAMILTON ISLAND AIRPORT Lat: -20.37 Lon: 148.95 Height: 58.66 m
Data from the previous 72 hours. | See also: Recent months at Hamilton Island
Date/Time
EST
Wind Sea
Height
m
Swell Vis
km
Cloud Weather Temp
°C
Press
MSL
hPa
Rain since
9am
mm
Dir  Spd
kts
Gust
kts
Height
m
Period
s
Dir
19/08:30am SSE 21 31 - - - - 10 Clear - 19.2 1016.4 0.0
19/08:00am S 18 24 - - - - 10 - - 19.2 1016.5 0.0
19/07:30am S 20 26 - - - - 10 - - 18.9 1016.5 0.0
19/07:00am SSE 23 29 - - - - 10 - - 19.8 1015.9 0.0
19/06:30am S 19 25 - - - - 10 - - 19.4 1015.6 0.0
19/06:00am SSE 22 28 - - - - 10 - - 20.3 1015.1 0.0
19/05:30am SSE 24 31 - - - - 10 - - 20.8 1014.7 0.0
19/05:00am SSE 29 36 - - - - 10 - - 21.2 1014.3 0.0
19/04:30am SSE 25 32 - - - - 10 - - 21.4 1013.9 0.0
19/04:00am SSE 21 28 - - - - 10 - - 21.9 1013.7 0.0
19/03:30am SE 26 30 - - - - 10 - - 22.4 1013.7 0.0
19/03:00am SSE 22 27 - - - - 10 - - 22.3 1013.7 0.0
19/02:46am S 15 26 - - - - 10 - - 22.2 1013.9 0.0
19/02:30am SSE 12 17 - - - - 10 - - 21.9 1013.9 0.0
19/02:00am S 11 13 - - - - 10 - - 21.4 1014.1 0.0
19/01:30am SSW 12 16 - - - - 10 - - 21.4 1014.0 0.0
19/01:00am SSW 11 14 - - - - 10 - - 21.6 1014.3 0.0
19/12:30am SSW 10 11 - - - - 10 - - 21.5 1014.4 0.0
19/12:00am SSW 10 11 - - - - 10 - - 21.7 1014.7 0.0
 
Date/Time
EST
Wind Sea
Height
m
Swell Vis
km
Cloud Weather Temp
°C
Press
MSL
hPa
Rain since
9am
mm
Dir  Spd
kts
Gust
kts
Height
m
Period
s
Dir
18/11:30pm SE 11 14 - - - - 10 - - 22.6 1015.0 0.0
18/11:00pm S 4 6 - - - - 10 - - 22.3 1015.2 0.0
18/10:30pm ESE 3 4 - - - - 10 - - 21.9 1015.3 0.0
18/10:00pm SE 4 5 - - - - 10 - - 22.3 1015.3 0.0
18/09:30pm ESE 8 9 - - - - 10 - - 22.6 1015.4 0.0
18/09:00pm SE 10 11 - - - - 10 - - 22.6 1015.4 0.0
18/08:30pm SE 10 11 - - - - 10 - - 22.6 1015.3 0.0
18/08:00pm ESE 11 12 - - - - 10 - - 22.8 1015.2 0.0
18/07:30pm ESE 11 13 - - - - 10 - - 22.9 1014.8 0.0
18/07:00pm ESE 11 13 - - - - 10 - - 23.0 1014.5 0.0
18/06:30pm ESE 8 10 - - - - 10 - - 22.8 1014.3 0.0
18/06:00pm ESE 10 12 - - - - 10 - - 22.9 1014.1 0.0
18/05:30pm ESE 9 10 - - - - 10 - - 22.9 1014.0 0.0
18/05:00pm SE 10 13 - - - - 10 - - 22.9 1013.9 0.0
18/04:30pm SE 11 13 - - - - 10 - - 23.2 1013.7 0.0
18/04:00pm SE 13 15 - - - - 10 - - 23.3 1013.4 0.0
18/03:30pm SE 12 14 - - - - 10 - - 23.4 1013.5 0.0
18/03:00pm SE 14 17 - - - - 10 - - 23.7 1013.8 0.0
18/02:30pm SE 13 16 - - - - 10 - - 23.9 1013.9 0.0
18/02:00pm SE 12 15 - - - - 10 - - 23.9 1014.2 0.0
18/01:30pm SE 16 18 - - - - 10 - - 23.8 1014.4 0.0
18/01:00pm SE 17 19 - - - - 10 - - 23.3 1014.6 0.0
18/12:30pm SSE 16 19 - - - - 10 - - 23.4 1015.1 0.0
18/12:01pm SSE 16 18 - - - - 10 - - 23.4 1015.6 0.0
18/12:00pm SSE 16 18 - - - - 10 - - 23.3 1015.6 0.0
18/11:42am SSE 16 20 - - - - 2 - - 23.1 1015.9 0.0
18/11:30am SSE 18 22 - - - - 10 - - 23.1 1016.0 0.0
18/11:00am SSE 18 21 - - - - 10 - - 22.8 1016.3 0.0
18/10:30am SSE 18 21 - - - - 10 - - 22.9 1016.7 0.0
18/10:00am SSE 18 22 - - - - 10 - - 22.7 1017.1 0.0
18/09:30am SSE 17 21 - - - - 10 - - 22.9 1017.3 0.0
18/09:00am SSE 17 21 - - - - 10 Mostly clear - 22.6 1017.0 0.0
18/08:30am SSE 17 21 - - - - 10 - - 22.5 1016.8 0.0
18/08:09am SSE 17 22 - - - - 10 Partly cloudy - 22.4 1016.7 0.0
18/08:00am SSE 18 21 - - - - 10 Partly cloudy - 22.3 1016.7 0.0
18/07:41am SSE 17 20 - - - - 10 Partly cloudy - 22.3 1016.6 0.0
18/07:30am SSE 17 21 - - - - 10 Partly cloudy - 22.1 1016.5 0.0
18/07:00am SSE 18 21 - - - - 10 Partly cloudy - 21.8 1016.2 0.0
18/06:30am SSE 17 21 - - - - 10 - - 21.7 1016.0 0.0
18/06:00am SSE 17 20 - - - - 10 Mostly clear - 21.7 1015.7 0.0
18/05:30am SSE 16 19 - - - - 10 - - 21.8 1015.5 0.0
18/05:00am SSE 17 22 - - - - 10 Partly cloudy - 21.8 1015.3 0.0
18/04:30am SSE 17 20 - - - - 10 - - 21.9 1015.1 0.0
18/04:00am SSE 16 21 - - - - 10 - - 22.0 1015.2 0.0
18/03:30am SSE 17 21 - - - - 10 Partly cloudy - 22.1 1015.1 0.0
18/03:00am SSE 14 18 - - - - 10 - - 22.1 1015.3 0.0
18/02:30am SSE 15 18 - - - - 10 - - 22.1 1015.5 0.0
18/02:00am SSE 14 18 - - - - 10 Partly cloudy - 22.2 1015.7 0.0
18/01:30am SSE 13 15 - - - - 10 Partly cloudy - 22.5 1016.1 0.0
18/01:00am SE 14 16 - - - - 10 - - 22.7 1016.3 0.0
18/12:30am SE 13 15 - - - - 10 - - 22.6 1016.5 0.0
18/12:00am SE 14 17 - - - - 10 - - 22.7 1016.6 0.0
 
Date/Time
EST
Wind Sea
Height
m
Swell Vis
km
Cloud Weather Temp
°C
Press
MSL
hPa
Rain since
9am
mm
Dir  Spd
kts
Gust
kts
Height
m
Period
s
Dir
17/11:30pm SE 16 18 - - - - 10 - - 22.9 1017.0 0.0
17/11:00pm SE 15 18 - - - - 10 - - 22.9 1017.2 0.0
17/10:30pm SE 16 18 - - - - 10 - - 23.0 1017.4 0.0
17/10:00pm ESE 15 18 - - - - 10 Partly cloudy - 23.0 1017.6 0.0
17/09:30pm SE 17 20 - - - - 10 - - 23.1 1017.5 0.0
17/09:20pm SE 18 21 - - - - 10 - - 23.0 1017.5 0.0
17/09:01pm SE 17 19 - - - - 3 - - 22.9 1017.6 0.0
17/09:00pm SE 17 19 - - - - 10 - - 23.0 1017.6 0.0
17/08:30pm SE 17 20 - - - - 10 Partly cloudy - 23.0 1017.5 0.0
17/08:19pm SE 17 19 - - - - 10 Partly cloudy - 22.9 1017.5 0.0
17/08:00pm SE 16 19 - - - - 4 - - 22.9 1017.3 0.0
17/07:30pm ESE 15 18 - - - - 10 - - 22.8 1017.3 0.0
17/07:00pm SE 17 19 - - - - 10 - - 22.8 1017.1 0.0
17/06:30pm SE 18 21 - - - - 10 - - 22.8 1016.9 0.0
17/06:00pm SE 17 20 - - - - 10 Mostly clear - 22.7 1016.7 0.0
17/05:30pm SE 19 22 - - - - 10 Partly cloudy - 22.7 1016.4 0.0
17/05:00pm SE 20 23 - - - - 10 - - 22.8 1016.2 0.0
17/04:30pm SE 19 21 - - - - 10 - - 22.7 1016.1 0.0
17/04:00pm SE 22 25 - - - - 10 Partly cloudy - 22.9 1015.8 0.0
17/03:30pm SE 22 26 - - - - 10 Partly cloudy - 22.8 1015.8 0.0
17/03:00pm SSE 23 25 - - - - 10 Mostly clear - 22.8 1015.8 0.0
17/02:30pm SE 23 26 - - - - 10 Partly cloudy - 23.0 1015.8 0.0
17/02:00pm SSE 22 26 - - - - 10 Partly cloudy - 22.8 1015.8 0.0
17/01:30pm SSE 22 27 - - - - 10 Partly cloudy - 23.2 1016.2 0.0
17/01:20pm SSE 23 26 - - - - 10 Partly cloudy - 23.2 1016.4 0.0
17/01:00pm SSE 21 26 - - - - 10 Partly cloudy - 23.0 1016.7 0.0
17/12:36pm SSE 22 26 - - - - 10 Partly cloudy - 23.1 1016.9 0.0
17/12:30pm SSE 21 25 - - - - 10 Partly cloudy - 23.4 1017.0 0.0
17/12:00pm SSE 22 26 - - - - 10 - - 23.4 1017.4 0.0
17/11:30am SSE 21 27 - - - - 10 Partly cloudy - 23.3 1017.8 0.0
17/11:02am SSE 22 26 - - - - 10 Partly cloudy - 23.3 1018.1 0.0
17/11:00am SSE 22 26 - - - - 10 Partly cloudy - 23.3 1018.1 0.0
17/10:30am SSE 20 24 - - - - 10 Partly cloudy - 22.9 1018.4 0.0
17/10:00am SSE 20 25 - - - - 10 Partly cloudy - 22.8 1018.7 0.0
17/09:49am SSE 21 26 - - - - 10 Partly cloudy - 22.6 1018.8 0.0
17/09:30am SSE 20 25 - - - - 10 Partly cloudy - 22.5 1018.9 0.0
17/09:28am SSE 20 24 - - - - 10 Partly cloudy - 22.6 1019.0 0.0
17/09:00am SSE 19 23 - - - - 10 Cloudy - 22.4 1018.9 2.2
17/08:48am SSE 18 22 - - - - 10 Partly cloudy - 21.9 1018.8 2.2
17/08:30am SSE 17 21 - - - - 10 Partly cloudy - 21.6 1018.7 2.2
17/08:00am SSE 20 24 - - - - 10 Partly cloudy - 21.8 1018.5 2.2
17/07:47am SSE 19 24 - - - - 10 Partly cloudy - 22.0 1018.3 2.2
17/07:30am SSE 21 26 - - - - 10 Partly cloudy - 21.9 1018.2 2.2
17/07:00am SSE 19 24 - - - - 10 Partly cloudy - 21.8 1018.1 2.2
17/06:30am SSE 19 23 - - - - 10 Partly cloudy - 21.5 1017.8 2.2
17/06:09am SE 23 26 - - - - 10 Partly cloudy - 21.9 1017.6 2.2
17/06:00am SSE 22 26 - - - - 10 Mostly cloudy - 21.8 1017.5 2.2
17/05:30am SSE 19 25 - - - - 10 Partly cloudy - 21.4 1017.5 2.2
17/05:23am SSE 18 25 - - - - 10 Partly cloudy - 21.3 1017.4 2.2
17/05:08am SSE 19 23 - - - - 10 Partly cloudy - 21.6 1017.4 2.2
17/05:07am SSE 19 23 - - - - 10 Partly cloudy - 21.5 1017.4 2.2
17/05:00am SSE 18 23 - - - - 10 Partly cloudy - 21.5 1017.4 2.2
17/04:41am SSE 16 20 - - - - 10 Partly cloudy - 21.9 1017.5 2.2
17/04:30am SSE 17 21 - - - - 10 Partly cloudy - 21.3 1017.5 2.2
17/04:00am SSE 14 19 - - - - 10 Partly cloudy - 21.4 1017.5 2.2
17/03:30am SE 17 20 - - - - 10 Partly cloudy - 21.2 1017.4 2.2
17/03:21am SE 19 25 - - - - 10 Partly cloudy - 21.2 1017.5 2.2
17/03:10am SE 25 30 - - - - 6 Partly cloudy - 21.0 1017.4 2.2
17/03:05am SE 25 30 - - - - 6 Partly cloudy - 20.8 1017.4 2.2
17/03:00am SSE 20 29 - - - - 10 Cloudy Rain 21.3 1017.4 2.0
17/02:58am SSE 18 29 - - - - 10 Partly cloudy - 21.6 1017.5 1.6
17/02:30am SSE 16 21 - - - - 10 Partly cloudy - 21.9 1017.7 1.6
17/02:00am SE 18 21 - - - - 10 Partly cloudy - 22.5 1017.9 1.6
17/01:30am SE 20 22 - - - - 10 Partly cloudy - 22.2 1018.1 1.6
17/01:00am ESE 14 17 - - - - 10 Partly cloudy - 21.6 1018.2 1.6
17/12:56am ESE 15 18 - - - - 10 Partly cloudy - 21.5 1018.3 1.6
17/12:30am ESE 26 34 - - - - 5 Partly cloudy - 20.9 1018.5 1.0
17/12:29am SE 25 34 - - - - 6 Partly cloudy - 20.9 1018.5 1.0
17/12:23am SE 17 31 - - - - 10 Partly cloudy - 22.0 1018.6 0.0
17/12:00am SE 16 18 - - - - 10 Cloudy - 22.7 1019.0 0.0
 
Date/Time
EST
Wind Sea
Height
m
Swell Vis
km
Cloud Weather Temp
°C
Press
MSL
hPa
Rain since
9am
mm
Dir  Spd
kts
Gust
kts
Height
m
Period
s
Dir
16/11:30pm SE 19 23 - - - - 10 Partly cloudy - 22.6 1019.1 0.0
16/11:00pm SE 24 29 - - - - 10 Partly cloudy - 23.2 1019.1 0.0
16/10:30pm SE 19 23 - - - - 10 Partly cloudy - 23.5 1019.5 0.0
16/10:00pm SE 20 23 - - - - 10 Partly cloudy - 23.5 1019.7 0.0
16/09:30pm SE 19 22 - - - - 10 Partly cloudy - 23.4 1019.9 0.0
16/09:00pm SE 19 22 - - - - 10 Mostly clear - 23.2 1019.9 0.0
16/08:30pm SE 19 23 - - - - 10 Partly cloudy - 23.2 1019.9 0.0
16/08:00pm SE 19 23 - - - - 10 Partly cloudy - 23.3 1019.8 0.0
16/07:30pm SE 21 25 - - - - 10 Partly cloudy - 23.2 1019.6 0.0
16/07:00pm SE 19 23 - - - - 10 Partly cloudy - 23.3 1019.2 0.0
16/06:30pm SE 20 24 - - - - 10 - - 23.4 1018.9 0.0
16/06:00pm SE 22 26 - - - - 10 - - 23.4 1018.6 0.0
16/05:30pm SE 22 26 - - - - 10 Partly cloudy - 23.4 1018.4 0.0
16/05:00pm SE 20 22 - - - - 10 - - 23.4 1018.2 0.0
16/04:30pm SE 21 24 - - - - 10 - - 23.5 1017.9 0.0
16/04:00pm SE 23 26 - - - - 10 - - 23.5 1017.7 0.0
16/03:30pm SSE 21 25 - - - - 10 Partly cloudy - 23.6 1017.8 0.0
16/03:00pm SSE 23 27 - - - - 10 Partly cloudy - 23.7 1018.0 0.0
16/02:30pm SSE 22 27 - - - - 10 Partly cloudy - 23.5 1018.1 0.0
16/02:00pm SSE 22 27 - - - - 10 Partly cloudy - 24.0 1017.9 0.0
16/01:30pm SSE 21 25 - - - - 10 Partly cloudy - 24.0 1018.2 0.0
16/01:00pm SE 17 21 - - - - 10 Partly cloudy - 25.4 1018.5 0.0
16/12:30pm SE 20 25 - - - - 10 Partly cloudy - 24.6 1018.7 0.0
16/12:00pm SE 18 21 - - - - 10 Partly cloudy - 25.0 1019.2 0.0
16/11:30am SE 17 19 - - - - 10 Partly cloudy - 24.9 1019.7 0.0
16/11:00am SSE 15 19 - - - - 10 Partly cloudy - 24.5 1020.0 0.0
16/10:30am SSE 15 20 - - - - 10 Partly cloudy - 23.9 1020.4 0.0
16/10:00am SE 16 20 - - - - 10 Partly cloudy - 23.9 1020.7 0.0
16/09:30am ESE 19 23 - - - - 10 Partly cloudy - 25.1 1020.6 0.0
16/09:00am ESE 19 23 - - - - 10 Mostly clear - 25.0 1020.5 0.0

Other formats

Comma delimited format used in spreadsheet applications
http://www.bom.gov.au/fwo/IDQ60701/IDQ60701.94368.axf

JavaScript Object Notation format (JSON) in row-major order
http://www.bom.gov.au/fwo/IDQ60701/IDQ60701.94368.json

Data quality

Most of these data are generated automatically and are frequently updated. Quality checks on data are not normally performed. It is possible for incorrect values to appear. Refer to information at About Latest Weather Observations and please check the disclaimer before using these data.